Lake Levels Lake Levels   »   United States   »   Alabama
LAKES RIVERS MARINAS NEWS HOUSES EVENTS MAPS
1,681 Lakes:
Lake Store

Lake Levels in Alabama, United States

Lake Name Current
Level
Full Pool +/-
Full Pool
Reading
Date - Time
Andrews (AL) 79.54 105.00 -25.46 7/21/2017  5:00 PM
Bankhead (AL) 254.30 255.10 -0.80 7/21/2017  7:39 AM
Claiborne (AL) 38.48 7/21/2017  5:00 PM
Demopolis (AL) 74.60 73.00 1.60 7/21/2017  7:39 AM
Eufaula (AL GA) 189.04 188.00 1.04 7/21/2017  12:00 AM
Goat Rock (AL GA) 403.53 404.00 -0.47 7/21/2017  10:31 AM
Guntersville (AL) 594.79 595.44 -0.65 7/16/2017  11:45 PM
Harding (AL GA) 520.54 521.00 -0.46 7/21/2017  10:31 AM
Holt (AL) 186.40 187.00 -0.60 7/21/2017  7:39 AM
Jordan (AL) 251.76 252.00 -0.24 7/21/2017  6:00 PM
Lay (AL) 395.79 396.00 -0.21 7/21/2017  6:00 PM
Logan Martin (AL) 464.79 465.00 -0.21 7/21/2017  6:00 PM
Martin (AL) 490.52 491.00 -0.48 7/21/2017  6:00 PM
Mitchell (AL) 311.75 311.90 -0.15 7/21/2017  6:00 PM
Neely Henry (AL) 507.61 508.00 -0.39 7/21/2017  6:00 PM
Pickwick (AL TN MS) 414.25 414.00 0.25 7/16/2017  11:45 PM
R.E. Bob Woodruff (AL) 125.40 125.00 0.40 7/21/2017  7:39 AM
Smith (AL) 508.72 510.00 -1.28 7/21/2017  6:00 PM
Tallassee (AL) 287.30 288.80 -1.50 7/21/2017  7:39 AM
Tuscaloosa (AL) 223.47 229.96 -6.49 7/21/2017  12:00 AM
Wedowee (AL) 792.85 793.00 -0.15 7/21/2017  6:00 PM
Weiss (AL GA) 563.88 564.00 -0.12 7/21/2017  6:00 PM
West Point (AL GA) 635.39 635.00 0.39 7/21/2017  7:15 PM
Wheeler (AL) 555.68 556.28 -0.60 7/16/2017  11:45 PM
William 'Bill' Dannelly (AL) 86.95 80.00 6.95 7/21/2017  6:00 PM
William Baker Oliver (AL) 125.00 7/21/2017  7:39 AM
Wilson (AL) 506.51 507.88 -1.37 7/21/2017  6:00 PM
Yates (AL) 343.18 344.00 -0.82 7/21/2017  6:00 PM


CURRENT DAILY STREAMFLOW CONDITIONS
High
90th percentile
75th - 89th percentile
25th - 74th percentile
10th - 24th percentile
10th percentile
Low
Not ranked

The colored dots on this map depict streamflow conditions as a percentile, which is computed from the period of record for the current day of the year. Only stations with at least 30 years of record are used. The gray circles indicate other stations that were not ranked in percentiles either because they have fewer than 30 years of record or because they report parameters other than streamflow. Some stations, for example, measure stage only.
U.S. Daily Streamflow Conditions



U.S. Drought Monitor